createdAt,value
2019-05-16T00:02:48.481Z,47.95
2019-05-16T00:05:54.233Z,44.60
2019-05-16T00:08:52.985Z,47.35
2019-05-16T00:11:54.230Z,43.78
2019-05-16T00:14:58.070Z,48.00
2019-05-16T00:17:58.921Z,42.93
2019-05-16T00:21:00.181Z,41.90
2019-05-16T00:24:01.629Z,42.43
2019-05-16T00:27:02.963Z,43.60
2019-05-16T00:30:04.589Z,46.23
2019-05-16T00:33:08.148Z,47.70
2019-05-16T00:36:09.328Z,44.90
2019-05-16T00:39:11.253Z,43.00
2019-05-16T00:42:13.249Z,47.03
2019-05-16T00:45:14.494Z,46.18
2019-05-16T00:48:17.858Z,48.63
2019-05-16T00:51:18.809Z,41.33
2019-05-16T00:54:20.069Z,46.90
2019-05-16T00:57:41.187Z,42.33
2019-05-16T01:00:49.942Z,46.10
2019-05-16T01:03:50.590Z,43.38
2019-05-16T01:06:52.073Z,42.25
2019-05-16T01:09:53.320Z,64.90
2019-05-16T01:12:54.481Z,51.70
2019-05-16T01:15:57.935Z,57.58
2019-05-16T01:18:59.485Z,56.73
2019-05-16T01:22:00.915Z,67.35
2019-05-16T01:25:02.949Z,69.42
2019-05-16T01:28:04.477Z,66.55
2019-05-16T01:31:05.722Z,73.45
2019-05-16T01:34:07.792Z,74.07
2019-05-16T01:37:09.138Z,75.15
2019-05-16T01:40:11.672Z,70.15
2019-05-16T01:43:12.895Z,73.22
2019-05-16T01:46:14.329Z,67.97
2019-05-16T01:49:18.582Z,48.73
2019-05-16T01:52:19.466Z,48.87
2019-05-16T01:55:20.708Z,36.53
2019-05-16T01:58:22.133Z,26.90
2019-05-16T02:01:23.384Z,24.20
2019-05-16T02:04:24.850Z,25.52
2019-05-16T02:07:28.124Z,24.43
2019-05-16T02:10:29.315Z,26.85
2019-05-16T02:13:30.573Z,29.95
2019-05-16T02:16:32.026Z,25.57
2019-05-16T02:19:33.424Z,24.90
2019-05-16T02:22:34.864Z,20.82
2019-05-16T02:25:40.512Z,22.35
2019-05-16T02:28:40.901Z,20.17
2019-05-16T02:31:42.450Z,22.35
2019-05-16T02:34:43.888Z,22.20
2019-05-16T02:37:45.124Z,23.00
2019-05-16T02:40:46.482Z,18.73
2019-05-16T02:43:50.630Z,19.20
2019-05-16T02:46:50.982Z,19.40
2019-05-16T02:49:52.341Z,19.02
2019-05-16T02:52:53.609Z,21.30
2019-05-16T02:55:55.175Z,22.35
2019-05-16T02:58:56.442Z,24.35
2019-05-16T03:02:00.595Z,23.50
2019-05-16T03:05:01.215Z,26.77
2019-05-16T03:08:02.798Z,29.85
2019-05-16T03:11:04.031Z,33.20
2019-05-16T03:14:05.463Z,28.90
2019-05-16T03:17:06.755Z,28.98
2019-05-16T03:20:10.709Z,31.82
2019-05-16T03:23:11.667Z,43.52
2019-05-16T03:26:33.081Z,38.92
2019-05-16T03:29:34.323Z,42.25
2019-05-16T03:32:35.798Z,50.40
2019-05-16T03:35:37.018Z,57.78
2019-05-16T03:38:41.091Z,56.83
2019-05-16T03:41:41.634Z,59.60
2019-05-16T03:44:43.107Z,63.38
2019-05-16T03:47:44.344Z,89.97
2019-05-16T03:50:46.481Z,53.65
2019-05-16T03:53:50.614Z,72.82
2019-05-16T03:56:51.410Z,60.03
2019-05-16T03:59:52.963Z,60.43
2019-05-16T04:02:54.449Z,67.17
2019-05-16T04:05:55.826Z,83.95
2019-05-16T04:08:57.084Z,59.77
2019-05-16T04:12:01.548Z,82.02
2019-05-16T04:15:03.230Z,88.03
2019-05-16T04:18:04.482Z,95.40
2019-05-16T04:21:05.919Z,113.77
2019-05-16T04:24:07.288Z,107.63
2019-05-16T04:27:11.760Z,100.50
2019-05-16T04:30:12.274Z,94.37
2019-05-16T04:33:13.815Z,108.27
2019-05-16T04:36:15.046Z,96.82
2019-05-16T04:39:16.919Z,85.80
2019-05-16T04:42:21.293Z,94.75
2019-05-16T04:45:21.376Z,95.28
2019-05-16T04:48:23.188Z,71.02
2019-05-16T04:51:25.691Z,90.35
2019-05-16T04:54:26.955Z,77.03
2019-05-16T04:57:31.152Z,68.90
2019-05-16T05:00:32.072Z,58.20
2019-05-16T05:03:33.484Z,59.88
2019-05-16T05:06:34.734Z,55.80
2019-05-16T05:09:36.313Z,57.17
2019-05-16T05:12:40.537Z,50.83
2019-05-16T05:15:40.505Z,55.95
2019-05-16T05:18:41.744Z,73.75
2019-05-16T05:21:43.169Z,64.80
2019-05-16T05:24:44.446Z,65.83
2019-05-16T05:27:45.786Z,60.58
2019-05-16T05:30:47.048Z,60.40
2019-05-16T05:33:50.644Z,63.05
2019-05-16T05:36:51.545Z,62.60
2019-05-16T05:39:52.955Z,63.50
2019-05-16T05:42:54.184Z,60.73
2019-05-16T05:45:55.649Z,55.50
2019-05-16T05:48:56.906Z,55.75
2019-05-16T05:52:00.638Z,55.58
2019-05-16T05:58:32.487Z,63.42
2019-05-16T06:01:33.732Z,53.80
2019-05-16T06:04:35.188Z,47.73
2019-05-16T06:07:36.423Z,58.52
2019-05-16T06:10:37.893Z,62.88
2019-05-16T06:13:40.466Z,54.25
2019-05-16T06:16:42.090Z,46.45
2019-05-16T06:19:43.326Z,47.83
2019-05-16T06:22:45.640Z,46.73
2019-05-16T06:25:46.801Z,50.85
2019-05-16T06:28:50.407Z,42.23
2019-05-16T06:31:51.288Z,43.95
2019-05-16T06:34:52.553Z,43.48
2019-05-16T06:37:53.791Z,43.15
2019-05-16T06:40:55.436Z,41.02
2019-05-16T06:43:56.695Z,44.20
2019-05-16T06:47:14.991Z,38.17
2019-05-16T06:50:01.003Z,37.67
2019-05-16T06:53:03.432Z,34.73
2019-05-16T06:56:04.734Z,36.15
2019-05-16T06:59:06.569Z,37.30
2019-05-16T07:02:08.035Z,39.10
2019-05-16T07:05:10.281Z,39.95
2019-05-16T07:08:11.687Z,35.30
2019-05-16T07:11:13.133Z,36.20
2019-05-16T07:14:14.396Z,38.80
2019-05-16T07:17:15.660Z,36.38
2019-05-16T07:20:17.243Z,37.53
2019-05-16T07:23:20.662Z,36.25
2019-05-16T07:26:22.027Z,36.20
2019-05-16T07:29:23.299Z,35.63
2019-05-16T07:32:24.731Z,42.17
2019-05-16T07:35:25.994Z,40.48
2019-05-16T07:38:30.655Z,35.83
2019-05-16T07:41:31.197Z,38.83
2019-05-16T07:44:32.637Z,31.73
2019-05-16T07:47:33.883Z,32.88
2019-05-16T07:50:35.414Z,34.83
2019-05-16T07:53:37.139Z,34.35
2019-05-16T07:56:40.877Z,27.67
2019-05-16T07:59:43.326Z,32.70
2019-05-16T08:02:44.696Z,30.50
2019-05-16T08:05:45.940Z,28.32
2019-05-16T08:08:47.358Z,25.08
2019-05-16T08:11:50.123Z,29.32
2019-05-16T08:14:51.630Z,29.90
2019-05-16T08:17:53.151Z,24.47
2019-05-16T08:20:54.585Z,18.50
2019-05-16T08:23:56.183Z,18.95
2019-05-16T08:27:01.042Z,16.57
2019-05-16T08:30:02.458Z,16.95
2019-05-16T08:33:03.992Z,19.57
2019-05-16T08:36:08.219Z,20.40
2019-05-16T08:39:11.078Z,22.42
2019-05-16T08:42:13.100Z,24.35
2019-05-16T08:45:14.669Z,20.40
2019-05-16T08:48:16.149Z,21.17
2019-05-16T08:51:21.976Z,19.10
2019-05-16T08:54:21.495Z,17.02
2019-05-16T09:00:26.100Z,20.32
2019-05-16T09:03:27.342Z,17.15
2019-05-16T09:06:31.834Z,20.88
2019-05-16T09:09:42.619Z,16.77
2019-05-16T09:10:39.232Z,21.35
2019-05-16T09:12:37.152Z,17.90
2019-05-16T09:15:38.973Z,17.25
2019-05-16T09:18:45.341Z,16.95
2019-05-16T09:21:43.737Z,16.95
2019-05-16T09:24:47.897Z,17.07
2019-05-16T09:27:48.336Z,18.62
2019-05-16T09:30:49.573Z,14.18
2019-05-16T09:33:50.870Z,12.73
2019-05-16T09:36:52.077Z,14.15
2019-05-16T09:39:53.678Z,15.00
2019-05-16T09:42:56.841Z,14.40
2019-05-16T09:46:03.795Z,12.82
2019-05-16T09:49:15.685Z,14.30
2019-05-16T09:52:07.308Z,14.43
2019-05-16T09:55:09.587Z,16.35
2019-05-16T09:58:10.893Z,16.25
2019-05-16T10:01:12.325Z,14.28
2019-05-16T10:04:13.767Z,17.67
2019-05-16T10:07:17.949Z,16.70
2019-05-16T10:10:18.261Z,14.90
2019-05-16T10:13:19.520Z,15.60
2019-05-16T10:16:20.837Z,14.05
2019-05-16T10:19:22.141Z,14.00
2019-05-16T10:22:23.685Z,16.45
2019-05-16T10:25:27.456Z,15.45
2019-05-16T10:28:28.375Z,17.23
2019-05-16T10:31:41.335Z,17.52
2019-05-16T10:34:32.845Z,18.50
2019-05-16T10:37:34.102Z,16.60
2019-05-16T10:40:36.958Z,15.35
2019-05-16T10:43:38.502Z,14.87
2019-05-16T10:46:40.173Z,14.33
2019-05-16T10:49:42.080Z,14.47
2019-05-16T10:52:43.744Z,13.20
2019-05-16T10:55:47.557Z,13.90
2019-05-16T10:59:14.729Z,15.18
2019-05-16T11:01:52.214Z,14.40
2019-05-16T11:05:14.229Z,12.78
2019-05-16T11:07:57.496Z,16.52
2019-05-16T11:10:59.132Z,15.85
2019-05-16T11:14:00.394Z,15.63
2019-05-16T11:17:01.858Z,14.45
2019-05-16T11:20:04.733Z,17.45
2019-05-16T11:23:07.930Z,18.07
2019-05-16T11:26:09.286Z,17.07
2019-05-16T11:29:10.828Z,16.73
2019-05-16T11:32:12.117Z,17.73
2019-05-16T11:35:13.537Z,18.23
2019-05-16T11:38:17.523Z,17.67
2019-05-16T11:41:18.129Z,21.80
2019-05-16T11:44:19.378Z,16.60
2019-05-16T11:47:21.234Z,20.77
2019-05-16T11:50:22.471Z,19.10
2019-05-16T11:53:23.823Z,20.32
2019-05-16T11:56:25.869Z,21.27
2019-05-16T11:59:27.678Z,18.60
2019-05-16T12:02:28.913Z,18.52
2019-05-16T12:05:30.165Z,16.17
2019-05-16T12:08:31.413Z,20.57
2019-05-16T12:14:39.649Z,19.45
2019-05-16T12:17:40.969Z,16.82
2019-05-16T12:20:42.208Z,15.30
2019-05-16T12:23:43.907Z,14.78
2019-05-16T12:26:47.837Z,15.00
2019-05-16T12:29:54.724Z,16.52
2019-05-16T12:32:51.794Z,17.27
2019-05-16T12:35:53.051Z,15.25
2019-05-16T12:38:54.315Z,14.95
2019-05-16T12:41:59.163Z,16.23
2019-05-16T12:45:00.205Z,15.72
2019-05-16T12:48:02.068Z,15.88
2019-05-16T12:51:07.891Z,13.35
2019-05-16T12:54:07.999Z,14.78
2019-05-16T12:57:09.327Z,16.52
2019-05-16T13:00:15.385Z,12.85
2019-05-16T13:03:14.815Z,14.75
2019-05-16T13:06:17.209Z,11.73
2019-05-16T13:09:18.823Z,14.10
2019-05-16T13:12:20.613Z,13.48
2019-05-16T13:15:22.104Z,12.88
2019-05-16T13:18:23.360Z,15.35
2019-05-16T13:21:27.297Z,15.38
2019-05-16T13:24:27.956Z,17.80
2019-05-16T13:27:29.348Z,17.12
2019-05-16T13:30:32.705Z,18.25
2019-05-16T13:33:36.593Z,16.00
2019-05-16T13:36:39.073Z,16.37
2019-05-16T13:39:40.137Z,19.92
2019-05-16T13:42:41.398Z,19.77
2019-05-16T13:45:42.645Z,21.05
2019-05-16T13:48:45.940Z,20.80
2019-05-16T13:51:47.210Z,20.55
2019-05-16T13:54:48.478Z,22.65
2019-05-16T13:57:49.799Z,20.75
2019-05-16T14:00:51.402Z,24.70
2019-05-16T14:03:52.695Z,27.00
2019-05-16T14:06:56.389Z,24.10
2019-05-16T14:09:57.878Z,26.97
2019-05-16T14:12:59.435Z,21.97
2019-05-16T14:16:00.770Z,24.98
2019-05-16T14:19:02.772Z,23.90
2019-05-16T14:22:07.708Z,22.40
2019-05-16T14:25:08.989Z,27.32
2019-05-16T14:28:10.617Z,24.70
2019-05-16T14:31:12.256Z,30.40
2019-05-16T14:34:13.540Z,28.83
2019-05-16T14:37:17.511Z,28.00
2019-05-16T14:40:18.067Z,28.98
2019-05-16T14:43:19.556Z,28.75
2019-05-16T14:46:20.803Z,30.77
2019-05-16T14:49:22.553Z,36.53
2019-05-16T14:52:23.773Z,32.60
2019-05-16T14:55:27.947Z,31.85
2019-05-16T14:58:30.686Z,33.25
2019-05-16T15:01:37.419Z,34.18
2019-05-16T15:04:38.154Z,36.10
2019-05-16T15:07:39.417Z,33.13
2019-05-16T15:10:40.918Z,31.45
2019-05-16T15:13:42.349Z,35.78
2019-05-16T15:16:47.448Z,36.38
2019-05-16T15:19:49.413Z,30.88
2019-05-16T15:22:50.756Z,39.08
2019-05-16T15:25:52.090Z,35.73
2019-05-16T15:28:58.381Z,32.83
2019-05-16T15:31:58.286Z,39.65
2019-05-16T15:34:59.939Z,33.83
2019-05-16T15:38:02.355Z,51.45
2019-05-16T15:41:04.464Z,36.80
2019-05-16T15:44:07.743Z,37.17
2019-05-16T15:47:11.177Z,37.73
2019-05-16T15:50:13.770Z,36.75
2019-05-16T15:53:17.662Z,38.20
2019-05-16T15:56:19.512Z,39.90
2019-05-16T15:59:21.665Z,41.90
2019-05-16T16:02:27.310Z,40.15
2019-05-16T16:05:29.540Z,37.40
2019-05-16T16:08:31.979Z,41.42
2019-05-16T16:11:34.168Z,39.03
2019-05-16T16:14:37.118Z,42.62
2019-05-16T16:17:39.436Z,38.10
2019-05-16T16:20:43.632Z,41.35
2019-05-16T16:23:47.358Z,43.05
2019-05-16T16:26:53.581Z,40.90
2019-05-16T16:29:57.200Z,26.20
2019-05-16T16:33:21.302Z,25.43
2019-05-16T16:36:12.834Z,26.80
2019-05-16T16:39:16.661Z,26.97
2019-05-16T16:42:19.385Z,27.98
2019-05-16T16:45:24.461Z,25.35
2019-05-16T16:48:32.421Z,21.20
2019-05-16T16:52:02.288Z,17.35
2019-05-16T16:54:42.916Z,18.42
2019-05-16T16:57:47.782Z,19.80
2019-05-16T17:00:56.161Z,19.60
2019-05-16T17:08:16.575Z,20.77
2019-05-16T17:11:21.824Z,19.75
2019-05-16T17:14:26.358Z,19.05
2019-05-16T17:17:28.072Z,18.80
2019-05-16T17:20:30.234Z,20.23
2019-05-16T17:23:32.425Z,21.50
2019-05-16T17:26:33.870Z,20.15
2019-05-16T17:29:36.917Z,17.60
2019-05-16T17:32:38.866Z,19.85
2019-05-16T17:35:40.117Z,20.40
2019-05-16T17:38:41.795Z,17.77
2019-05-16T17:41:43.675Z,17.67
2019-05-16T17:44:47.255Z,21.87
2019-05-16T17:47:49.058Z,18.45
2019-05-16T17:50:50.506Z,21.05
2019-05-16T17:53:59.285Z,24.90
2019-05-16T17:57:03.491Z,19.55
2019-05-16T18:00:13.085Z,20.80
2019-05-16T18:03:10.678Z,22.27
2019-05-16T18:06:31.805Z,22.40
2019-05-16T18:09:33.964Z,27.02
2019-05-16T18:12:37.249Z,24.55
2019-05-16T18:15:40.398Z,27.77
2019-05-16T18:18:42.754Z,22.50
2019-05-16T18:21:46.323Z,21.33
2019-05-16T18:24:47.615Z,24.32
2019-05-16T18:27:49.050Z,24.00
2019-05-16T18:30:50.349Z,25.65
2019-05-16T18:41:59.471Z,22.90
2019-05-16T18:45:02.949Z,25.20
2019-05-16T18:48:07.192Z,27.67
2019-05-16T18:51:08.306Z,20.45
2019-05-16T18:54:11.756Z,23.22
2019-05-16T18:57:13.812Z,24.12
2019-05-16T19:00:18.036Z,25.85
2019-05-16T19:03:20.963Z,23.50
2019-05-16T19:06:23.254Z,26.17
2019-05-16T19:09:26.791Z,21.60
2019-05-16T19:12:28.887Z,21.70
2019-05-16T19:15:31.282Z,21.52
2019-05-16T19:18:33.530Z,24.70
2019-05-16T19:21:36.857Z,22.42
2019-05-16T19:24:42.614Z,25.57
2019-05-16T19:27:46.915Z,36.05
2019-05-16T19:31:13.034Z,55.35
2019-05-16T19:34:18.083Z,54.55
2019-05-16T19:37:20.974Z,22.07
2019-05-16T19:40:23.357Z,23.27
2019-05-16T19:43:26.478Z,31.85
2019-05-16T19:46:27.947Z,37.45
2019-05-16T19:49:29.575Z,29.92
2019-05-16T19:52:31.202Z,28.73
2019-05-16T19:59:36.748Z,241.97
2019-05-16T20:02:38.193Z,151.65
2019-05-16T20:05:40.289Z,63.33
2019-05-16T20:08:41.719Z,55.48
2019-05-16T20:11:43.007Z,67.20
2019-05-16T20:14:47.129Z,55.60
2019-05-16T20:17:55.225Z,89.60
2019-05-16T20:20:52.027Z,76.97
2019-05-16T20:23:54.048Z,53.13
2019-05-16T20:26:57.082Z,62.95
2019-05-16T20:29:59.385Z,90.45
2019-05-16T20:33:00.826Z,60.00
2019-05-16T20:36:02.170Z,47.60
2019-05-16T20:39:08.404Z,49.38
2019-05-16T20:42:11.780Z,38.83
2019-05-16T20:45:16.954Z,43.80
2019-05-16T20:48:18.794Z,36.85
2019-05-16T20:51:20.764Z,36.90
2019-05-16T20:54:22.034Z,45.10
2019-05-16T20:57:23.297Z,39.55
2019-05-16T21:00:26.744Z,41.80
2019-05-16T21:03:28.306Z,42.78
2019-05-16T21:06:30.432Z,50.90
2019-05-16T21:09:31.882Z,42.38
2019-05-16T21:12:33.216Z,48.80
2019-05-16T21:15:37.091Z,56.48
2019-05-16T21:18:37.916Z,54.50
2019-05-16T21:21:39.340Z,49.83
2019-05-16T21:24:40.565Z,49.00
2019-05-16T21:27:42.014Z,48.68
2019-05-16T21:30:43.402Z,46.85
2019-05-16T21:33:46.953Z,41.60
2019-05-16T21:36:47.959Z,40.83
2019-05-16T21:39:49.406Z,34.53
2019-05-16T21:42:50.660Z,41.20
2019-05-16T21:45:52.541Z,44.85
2019-05-16T21:48:53.769Z,37.55
2019-05-16T21:51:57.056Z,32.78
2019-05-16T21:54:58.277Z,32.65
2019-05-16T21:57:59.708Z,39.18
2019-05-16T22:01:01.053Z,31.50
2019-05-16T22:04:02.921Z,32.25
2019-05-16T22:07:07.199Z,31.50
2019-05-16T22:10:08.894Z,29.60
2019-05-16T22:13:10.135Z,28.27
2019-05-16T22:16:11.581Z,30.43
2019-05-16T22:19:12.851Z,28.27
2019-05-16T22:22:16.481Z,29.70
2019-05-16T22:25:17.718Z,26.68
2019-05-16T22:28:19.182Z,28.02
2019-05-16T22:31:20.451Z,36.55
2019-05-16T22:34:21.885Z,32.53
2019-05-16T22:37:23.143Z,34.95
2019-05-16T22:40:26.529Z,37.05
2019-05-16T22:43:27.673Z,35.85
2019-05-16T22:46:29.034Z,39.70
2019-05-16T22:49:30.293Z,38.35
2019-05-16T22:52:31.547Z,34.73
2019-05-16T22:55:32.799Z,41.53
2019-05-16T22:58:34.069Z,41.95
2019-05-16T23:01:37.618Z,39.75
2019-05-16T23:04:38.556Z,38.80
2019-05-16T23:07:40.661Z,39.18
2019-05-16T23:10:42.138Z,39.10
2019-05-16T23:13:43.381Z,37.05
2019-05-16T23:16:46.458Z,35.55
2019-05-16T23:19:47.785Z,37.58
2019-05-16T23:22:49.033Z,34.33
2019-05-16T23:25:50.264Z,34.10
2019-05-16T23:28:51.710Z,37.03
2019-05-16T23:31:52.944Z,29.37
2019-05-16T23:34:54.410Z,31.60
2019-05-16T23:37:56.990Z,31.15
2019-05-16T23:40:58.478Z,33.88
2019-05-16T23:43:59.712Z,31.45
2019-05-16T23:47:01.077Z,30.20
2019-05-16T23:50:04.116Z,29.00
2019-05-16T23:53:07.430Z,31.25
2019-05-16T23:56:08.613Z,31.97
2019-05-16T23:59:10.114Z,32.50
